sensor_id;sensor_type;location;lat;lon;timestamp;P1;durP1;ratioP1;P2;durP2;ratioP2
19651;SDS011;9974;52.146;14.668;2023-06-19T00:02:20;8.50;;;6.75;;
19651;SDS011;9974;52.146;14.668;2023-06-19T00:04:46;10.10;;;7.95;;
19651;SDS011;9974;52.146;14.668;2023-06-19T00:07:12;8.00;;;6.63;;
19651;SDS011;9974;52.146;14.668;2023-06-19T00:09:38;8.75;;;6.90;;
19651;SDS011;9974;52.146;14.668;2023-06-19T00:12:04;8.25;;;6.72;;
19651;SDS011;9974;52.146;14.668;2023-06-19T00:14:30;9.45;;;7.80;;
19651;SDS011;9974;52.146;14.668;2023-06-19T00:16:57;11.52;;;7.60;;
19651;SDS011;9974;52.146;14.668;2023-06-19T00:19:25;10.05;;;7.57;;
19651;SDS011;9974;52.146;14.668;2023-06-19T00:21:51;9.70;;;7.55;;
19651;SDS011;9974;52.146;14.668;2023-06-19T00:24:22;10.07;;;8.43;;
19651;SDS011;9974;52.146;14.668;2023-06-19T00:26:48;9.27;;;6.68;;
19651;SDS011;9974;52.146;14.668;2023-06-19T00:29:14;9.55;;;7.38;;
19651;SDS011;9974;52.146;14.668;2023-06-19T00:31:40;10.82;;;8.40;;
19651;SDS011;9974;52.146;14.668;2023-06-19T00:34:06;9.15;;;7.30;;
19651;SDS011;9974;52.146;14.668;2023-06-19T00:36:32;8.60;;;6.57;;
19651;SDS011;9974;52.146;14.668;2023-06-19T00:39:05;9.23;;;6.90;;
19651;SDS011;9974;52.146;14.668;2023-06-19T00:41:32;8.80;;;7.05;;
19651;SDS011;9974;52.146;14.668;2023-06-19T00:44:00;9.38;;;7.65;;
19651;SDS011;9974;52.146;14.668;2023-06-19T00:46:26;9.75;;;7.85;;
19651;SDS011;9974;52.146;14.668;2023-06-19T00:48:52;9.02;;;7.32;;
19651;SDS011;9974;52.146;14.668;2023-06-19T00:51:18;9.15;;;7.30;;
19651;SDS011;9974;52.146;14.668;2023-06-19T00:53:44;7.95;;;6.35;;
19651;SDS011;9974;52.146;14.668;2023-06-19T00:56:11;10.35;;;7.20;;
19651;SDS011;9974;52.146;14.668;2023-06-19T00:58:37;11.00;;;7.03;;
19651;SDS011;9974;52.146;14.668;2023-06-19T01:01:03;8.82;;;6.60;;
19651;SDS011;9974;52.146;14.668;2023-06-19T01:03:30;8.32;;;6.80;;
19651;SDS011;9974;52.146;14.668;2023-06-19T01:05:56;8.70;;;6.72;;
19651;SDS011;9974;52.146;14.668;2023-06-19T01:08:42;8.23;;;6.70;;
19651;SDS011;9974;52.146;14.668;2023-06-19T01:11:23;9.65;;;7.70;;
19651;SDS011;9974;52.146;14.668;2023-06-19T01:14:18;8.15;;;7.22;;
19651;SDS011;9974;52.146;14.668;2023-06-19T01:16:50;9.70;;;7.22;;
19651;SDS011;9974;52.146;14.668;2023-06-19T01:19:20;8.00;;;6.65;;
19651;SDS011;9974;52.146;14.668;2023-06-19T01:21:47;9.63;;;7.45;;
19651;SDS011;9974;52.146;14.668;2023-06-19T01:24:14;8.98;;;6.32;;
19651;SDS011;9974;52.146;14.668;2023-06-19T01:26:40;10.65;;;7.63;;
19651;SDS011;9974;52.146;14.668;2023-06-19T01:29:06;10.88;;;8.07;;
19651;SDS011;9974;52.146;14.668;2023-06-19T01:31:34;9.73;;;7.75;;
19651;SDS011;9974;52.146;14.668;2023-06-19T01:34:14;8.18;;;6.25;;
19651;SDS011;9974;52.146;14.668;2023-06-19T01:36:42;9.63;;;7.68;;
19651;SDS011;9974;52.146;14.668;2023-06-19T01:39:08;9.32;;;7.55;;
19651;SDS011;9974;52.146;14.668;2023-06-19T01:41:36;9.98;;;8.18;;
19651;SDS011;9974;52.146;14.668;2023-06-19T01:44:03;9.07;;;7.22;;
19651;SDS011;9974;52.146;14.668;2023-06-19T01:46:30;9.95;;;7.38;;
19651;SDS011;9974;52.146;14.668;2023-06-19T01:48:55;10.15;;;7.43;;
19651;SDS011;9974;52.146;14.668;2023-06-19T01:51:21;9.75;;;7.72;;
19651;SDS011;9974;52.146;14.668;2023-06-19T01:53:47;9.88;;;7.35;;
19651;SDS011;9974;52.146;14.668;2023-06-19T01:56:13;11.02;;;8.75;;
19651;SDS011;9974;52.146;14.668;2023-06-19T01:58:39;11.05;;;9.07;;
19651;SDS011;9974;52.146;14.668;2023-06-19T02:01:05;10.43;;;8.20;;
19651;SDS011;9974;52.146;14.668;2023-06-19T02:03:31;10.10;;;8.27;;
19651;SDS011;9974;52.146;14.668;2023-06-19T02:05:57;10.48;;;8.18;;
19651;SDS011;9974;52.146;14.668;2023-06-19T02:08:23;10.82;;;8.88;;
19651;SDS011;9974;52.146;14.668;2023-06-19T02:10:49;11.75;;;9.07;;
19651;SDS011;9974;52.146;14.668;2023-06-19T02:13:15;13.38;;;9.45;;
19651;SDS011;9974;52.146;14.668;2023-06-19T02:15:40;11.60;;;8.98;;
19651;SDS011;9974;52.146;14.668;2023-06-19T02:18:06;11.45;;;9.43;;
19651;SDS011;9974;52.146;14.668;2023-06-19T02:20:33;12.13;;;8.88;;
19651;SDS011;9974;52.146;14.668;2023-06-19T02:22:59;11.40;;;9.15;;
19651;SDS011;9974;52.146;14.668;2023-06-19T02:25:24;13.00;;;10.02;;
19651;SDS011;9974;52.146;14.668;2023-06-19T02:27:51;15.25;;;10.30;;
19651;SDS011;9974;52.146;14.668;2023-06-19T02:30:17;11.65;;;9.43;;
19651;SDS011;9974;52.146;14.668;2023-06-19T02:32:43;13.05;;;10.25;;
19651;SDS011;9974;52.146;14.668;2023-06-19T02:35:09;13.02;;;10.20;;
19651;SDS011;9974;52.146;14.668;2023-06-19T02:37:36;11.55;;;9.40;;
19651;SDS011;9974;52.146;14.668;2023-06-19T02:40:03;11.90;;;9.10;;
19651;SDS011;9974;52.146;14.668;2023-06-19T02:42:30;11.85;;;9.52;;
19651;SDS011;9974;52.146;14.668;2023-06-19T02:44:56;11.57;;;9.70;;
19651;SDS011;9974;52.146;14.668;2023-06-19T02:47:27;12.18;;;9.32;;
19651;SDS011;9974;52.146;14.668;2023-06-19T02:49:55;13.15;;;10.50;;
19651;SDS011;9974;52.146;14.668;2023-06-19T02:52:22;12.38;;;10.38;;
19651;SDS011;9974;52.146;14.668;2023-06-19T02:54:48;13.40;;;10.00;;
19651;SDS011;9974;52.146;14.668;2023-06-19T02:57:14;13.57;;;10.43;;
19651;SDS011;9974;52.146;14.668;2023-06-19T02:59:40;15.63;;;10.70;;
19651;SDS011;9974;52.146;14.668;2023-06-19T03:02:06;12.57;;;9.23;;
19651;SDS011;9974;52.146;14.668;2023-06-19T03:04:32;12.35;;;10.18;;
19651;SDS011;9974;52.146;14.668;2023-06-19T03:06:58;16.10;;;11.30;;
19651;SDS011;9974;52.146;14.668;2023-06-19T03:09:24;13.70;;;10.85;;
19651;SDS011;9974;52.146;14.668;2023-06-19T03:11:51;13.02;;;9.60;;
19651;SDS011;9974;52.146;14.668;2023-06-19T03:14:17;13.07;;;10.18;;
19651;SDS011;9974;52.146;14.668;2023-06-19T03:16:43;14.32;;;9.68;;
19651;SDS011;9974;52.146;14.668;2023-06-19T03:19:09;16.52;;;10.35;;
19651;SDS011;9974;52.146;14.668;2023-06-19T03:21:35;15.10;;;10.57;;
19651;SDS011;9974;52.146;14.668;2023-06-19T03:24:01;14.10;;;11.73;;
19651;SDS011;9974;52.146;14.668;2023-06-19T03:26:28;14.60;;;10.43;;
19651;SDS011;9974;52.146;14.668;2023-06-19T03:28:53;13.77;;;11.38;;
19651;SDS011;9974;52.146;14.668;2023-06-19T03:31:19;14.88;;;11.10;;
19651;SDS011;9974;52.146;14.668;2023-06-19T03:33:45;14.80;;;11.00;;
19651;SDS011;9974;52.146;14.668;2023-06-19T03:36:12;14.40;;;11.48;;
19651;SDS011;9974;52.146;14.668;2023-06-19T03:38:38;15.15;;;11.05;;
19651;SDS011;9974;52.146;14.668;2023-06-19T03:41:04;13.80;;;11.00;;
19651;SDS011;9974;52.146;14.668;2023-06-19T03:43:29;15.35;;;11.10;;
19651;SDS011;9974;52.146;14.668;2023-06-19T03:45:55;15.25;;;11.30;;
19651;SDS011;9974;52.146;14.668;2023-06-19T03:48:21;15.02;;;11.73;;
19651;SDS011;9974;52.146;14.668;2023-06-19T03:50:47;13.23;;;10.73;;
19651;SDS011;9974;52.146;14.668;2023-06-19T03:53:13;15.93;;;12.23;;
19651;SDS011;9974;52.146;14.668;2023-06-19T03:55:39;13.70;;;10.68;;
19651;SDS011;9974;52.146;14.668;2023-06-19T03:58:05;16.33;;;11.73;;
19651;SDS011;9974;52.146;14.668;2023-06-19T04:00:31;15.95;;;12.20;;
19651;SDS011;9974;52.146;14.668;2023-06-19T04:02:57;14.10;;;11.55;;
19651;SDS011;9974;52.146;14.668;2023-06-19T04:05:23;13.10;;;10.90;;
19651;SDS011;9974;52.146;14.668;2023-06-19T04:07:49;16.90;;;12.00;;
19651;SDS011;9974;52.146;14.668;2023-06-19T04:10:15;14.48;;;11.73;;
19651;SDS011;9974;52.146;14.668;2023-06-19T04:12:42;14.20;;;11.50;;
19651;SDS011;9974;52.146;14.668;2023-06-19T04:15:10;15.57;;;12.55;;
19651;SDS011;9974;52.146;14.668;2023-06-19T04:17:36;16.90;;;12.82;;
19651;SDS011;9974;52.146;14.668;2023-06-19T04:20:03;15.40;;;11.93;;
19651;SDS011;9974;52.146;14.668;2023-06-19T04:22:36;15.10;;;12.57;;
19651;SDS011;9974;52.146;14.668;2023-06-19T04:25:03;14.63;;;11.98;;
19651;SDS011;9974;52.146;14.668;2023-06-19T04:27:31;17.45;;;12.40;;
19651;SDS011;9974;52.146;14.668;2023-06-19T04:29:57;15.25;;;12.52;;
19651;SDS011;9974;52.146;14.668;2023-06-19T04:32:23;15.68;;;11.52;;
19651;SDS011;9974;52.146;14.668;2023-06-19T04:34:49;13.77;;;11.75;;
19651;SDS011;9974;52.146;14.668;2023-06-19T04:37:15;14.70;;;11.77;;
19651;SDS011;9974;52.146;14.668;2023-06-19T04:39:44;13.05;;;11.48;;
19651;SDS011;9974;52.146;14.668;2023-06-19T04:42:12;16.25;;;12.18;;
19651;SDS011;9974;52.146;14.668;2023-06-19T04:44:45;13.88;;;11.02;;
19651;SDS011;9974;52.146;14.668;2023-06-19T04:47:13;14.80;;;11.68;;
19651;SDS011;9974;52.146;14.668;2023-06-19T04:49:41;13.38;;;11.13;;
19651;SDS011;9974;52.146;14.668;2023-06-19T04:52:07;15.48;;;11.35;;
19651;SDS011;9974;52.146;14.668;2023-06-19T04:54:33;14.38;;;11.07;;
19651;SDS011;9974;52.146;14.668;2023-06-19T04:56:59;15.10;;;11.55;;
19651;SDS011;9974;52.146;14.668;2023-06-19T04:59:26;13.30;;;10.25;;
19651;SDS011;9974;52.146;14.668;2023-06-19T05:01:51;15.65;;;12.45;;
19651;SDS011;9974;52.146;14.668;2023-06-19T05:04:19;14.48;;;11.50;;
19651;SDS011;9974;52.146;14.668;2023-06-19T05:06:45;15.82;;;12.02;;
19651;SDS011;9974;52.146;14.668;2023-06-19T05:09:11;16.30;;;10.57;;
19651;SDS011;9974;52.146;14.668;2023-06-19T05:11:37;13.82;;;11.93;;
19651;SDS011;9974;52.146;14.668;2023-06-19T05:14:03;15.50;;;12.38;;
19651;SDS011;9974;52.146;14.668;2023-06-19T05:16:29;15.23;;;11.88;;
19651;SDS011;9974;52.146;14.668;2023-06-19T05:18:55;15.88;;;11.65;;
19651;SDS011;9974;52.146;14.668;2023-06-19T05:21:21;14.13;;;11.70;;
19651;SDS011;9974;52.146;14.668;2023-06-19T05:23:47;18.75;;;12.50;;
19651;SDS011;9974;52.146;14.668;2023-06-19T05:26:24;13.25;;;11.30;;
19651;SDS011;9974;52.146;14.668;2023-06-19T05:28:51;15.55;;;12.70;;
19651;SDS011;9974;52.146;14.668;2023-06-19T05:31:17;17.67;;;11.85;;
19651;SDS011;9974;52.146;14.668;2023-06-19T05:33:43;14.77;;;12.32;;
19651;SDS011;9974;52.146;14.668;2023-06-19T05:36:09;14.48;;;11.75;;
19651;SDS011;9974;52.146;14.668;2023-06-19T05:38:35;15.45;;;12.32;;
19651;SDS011;9974;52.146;14.668;2023-06-19T05:41:04;13.13;;;11.18;;
19651;SDS011;9974;52.146;14.668;2023-06-19T05:43:29;17.45;;;12.30;;
19651;SDS011;9974;52.146;14.668;2023-06-19T05:45:56;12.50;;;10.85;;
19651;SDS011;9974;52.146;14.668;2023-06-19T05:48:24;18.02;;;13.48;;
19651;SDS011;9974;52.146;14.668;2023-06-19T05:50:50;16.88;;;11.90;;
19651;SDS011;9974;52.146;14.668;2023-06-19T05:53:16;15.77;;;13.13;;
19651;SDS011;9974;52.146;14.668;2023-06-19T05:55:43;15.70;;;12.90;;
19651;SDS011;9974;52.146;14.668;2023-06-19T05:58:09;18.00;;;13.10;;
19651;SDS011;9974;52.146;14.668;2023-06-19T06:00:35;15.02;;;12.77;;
19651;SDS011;9974;52.146;14.668;2023-06-19T06:03:01;15.13;;;11.88;;
19651;SDS011;9974;52.146;14.668;2023-06-19T06:05:27;17.95;;;13.65;;
19651;SDS011;9974;52.146;14.668;2023-06-19T06:07:56;15.75;;;12.65;;
19651;SDS011;9974;52.146;14.668;2023-06-19T06:10:23;18.45;;;14.27;;
19651;SDS011;9974;52.146;14.668;2023-06-19T06:12:50;15.07;;;12.63;;
19651;SDS011;9974;52.146;14.668;2023-06-19T06:15:16;15.90;;;12.75;;
19651;SDS011;9974;52.146;14.668;2023-06-19T06:17:42;16.10;;;13.05;;
19651;SDS011;9974;52.146;14.668;2023-06-19T06:20:08;15.15;;;11.80;;
19651;SDS011;9974;52.146;14.668;2023-06-19T06:22:36;18.83;;;13.00;;
19651;SDS011;9974;52.146;14.668;2023-06-19T06:25:03;19.13;;;13.18;;
19651;SDS011;9974;52.146;14.668;2023-06-19T06:27:29;16.90;;;12.60;;
19651;SDS011;9974;52.146;14.668;2023-06-19T06:29:55;18.10;;;13.10;;
19651;SDS011;9974;52.146;14.668;2023-06-19T06:32:21;15.25;;;11.98;;
19651;SDS011;9974;52.146;14.668;2023-06-19T06:34:47;14.85;;;12.35;;
19651;SDS011;9974;52.146;14.668;2023-06-19T06:37:13;19.23;;;13.70;;
19651;SDS011;9974;52.146;14.668;2023-06-19T06:39:41;14.80;;;11.93;;
19651;SDS011;9974;52.146;14.668;2023-06-19T06:42:07;14.60;;;12.75;;
19651;SDS011;9974;52.146;14.668;2023-06-19T06:44:33;15.07;;;12.40;;
19651;SDS011;9974;52.146;14.668;2023-06-19T06:46:59;15.50;;;12.82;;
19651;SDS011;9974;52.146;14.668;2023-06-19T06:49:26;14.23;;;11.60;;
19651;SDS011;9974;52.146;14.668;2023-06-19T06:51:51;15.45;;;12.23;;
19651;SDS011;9974;52.146;14.668;2023-06-19T06:54:17;16.42;;;13.02;;
19651;SDS011;9974;52.146;14.668;2023-06-19T06:56:43;15.95;;;12.63;;
19651;SDS011;9974;52.146;14.668;2023-06-19T06:59:12;16.23;;;12.55;;
19651;SDS011;9974;52.146;14.668;2023-06-19T07:01:41;14.85;;;11.93;;
19651;SDS011;9974;52.146;14.668;2023-06-19T07:04:07;15.52;;;12.82;;
19651;SDS011;9974;52.146;14.668;2023-06-19T07:06:33;15.27;;;12.45;;
19651;SDS011;9974;52.146;14.668;2023-06-19T07:08:58;16.15;;;12.90;;
19651;SDS011;9974;52.146;14.668;2023-06-19T07:11:24;17.15;;;13.15;;
19651;SDS011;9974;52.146;14.668;2023-06-19T07:13:50;14.52;;;12.40;;
19651;SDS011;9974;52.146;14.668;2023-06-19T07:16:16;17.10;;;12.57;;
19651;SDS011;9974;52.146;14.668;2023-06-19T07:18:43;15.68;;;12.45;;
19651;SDS011;9974;52.146;14.668;2023-06-19T07:21:11;15.95;;;12.38;;
19651;SDS011;9974;52.146;14.668;2023-06-19T07:23:38;14.82;;;11.88;;
19651;SDS011;9974;52.146;14.668;2023-06-19T07:26:05;14.27;;;11.40;;
19651;SDS011;9974;52.146;14.668;2023-06-19T07:28:31;14.05;;;12.18;;
19651;SDS011;9974;52.146;14.668;2023-06-19T07:30:56;14.85;;;11.60;;
19651;SDS011;9974;52.146;14.668;2023-06-19T07:33:22;16.85;;;12.50;;
19651;SDS011;9974;52.146;14.668;2023-06-19T07:35:48;14.80;;;12.15;;
19651;SDS011;9974;52.146;14.668;2023-06-19T07:38:14;14.50;;;12.27;;
19651;SDS011;9974;52.146;14.668;2023-06-19T07:40:41;13.77;;;12.10;;
19651;SDS011;9974;52.146;14.668;2023-06-19T07:43:07;14.73;;;11.30;;
19651;SDS011;9974;52.146;14.668;2023-06-19T07:45:33;16.65;;;12.25;;
19651;SDS011;9974;52.146;14.668;2023-06-19T07:47:59;14.98;;;12.27;;
19651;SDS011;9974;52.146;14.668;2023-06-19T07:50:25;15.52;;;11.75;;
19651;SDS011;9974;52.146;14.668;2023-06-19T07:52:52;13.07;;;10.95;;
19651;SDS011;9974;52.146;14.668;2023-06-19T07:55:18;18.38;;;12.43;;
19651;SDS011;9974;52.146;14.668;2023-06-19T07:57:43;13.13;;;11.70;;
19651;SDS011;9974;52.146;14.668;2023-06-19T08:00:09;16.30;;;11.90;;
19651;SDS011;9974;52.146;14.668;2023-06-19T08:02:39;18.17;;;12.23;;
19651;SDS011;9974;52.146;14.668;2023-06-19T08:05:06;14.27;;;11.23;;
19651;SDS011;9974;52.146;14.668;2023-06-19T08:07:33;14.40;;;11.85;;
19651;SDS011;9974;52.146;14.668;2023-06-19T08:09:59;14.18;;;11.98;;
19651;SDS011;9974;52.146;14.668;2023-06-19T08:12:25;13.80;;;10.60;;
19651;SDS011;9974;52.146;14.668;2023-06-19T08:14:51;14.57;;;11.23;;
19651;SDS011;9974;52.146;14.668;2023-06-19T08:17:17;14.20;;;11.85;;
19651;SDS011;9974;52.146;14.668;2023-06-19T08:19:43;16.67;;;11.70;;
19651;SDS011;9974;52.146;14.668;2023-06-19T08:22:09;14.20;;;11.63;;
19651;SDS011;9974;52.146;14.668;2023-06-19T08:24:36;13.75;;;11.35;;
19651;SDS011;9974;52.146;14.668;2023-06-19T08:27:03;13.70;;;10.85;;
19651;SDS011;9974;52.146;14.668;2023-06-19T08:29:29;13.05;;;10.63;;
19651;SDS011;9974;52.146;14.668;2023-06-19T08:31:55;12.95;;;10.60;;
19651;SDS011;9974;52.146;14.668;2023-06-19T08:34:21;13.07;;;11.40;;
19651;SDS011;9974;52.146;14.668;2023-06-19T08:36:47;13.85;;;9.65;;
19651;SDS011;9974;52.146;14.668;2023-06-19T08:39:13;12.70;;;10.25;;
19651;SDS011;9974;52.146;14.668;2023-06-19T08:41:39;13.52;;;11.48;;
19651;SDS011;9974;52.146;14.668;2023-06-19T08:44:06;13.63;;;10.40;;
19651;SDS011;9974;52.146;14.668;2023-06-19T08:46:33;12.95;;;10.70;;
19651;SDS011;9974;52.146;14.668;2023-06-19T08:49:00;11.70;;;9.75;;
19651;SDS011;9974;52.146;14.668;2023-06-19T08:51:27;12.50;;;10.38;;
19651;SDS011;9974;52.146;14.668;2023-06-19T08:54:00;13.70;;;10.07;;
19651;SDS011;9974;52.146;14.668;2023-06-19T08:56:31;16.33;;;10.95;;
19651;SDS011;9974;52.146;14.668;2023-06-19T08:59:11;13.48;;;10.27;;
19651;SDS011;9974;52.146;14.668;2023-06-19T09:01:39;12.75;;;10.52;;
19651;SDS011;9974;52.146;14.668;2023-06-19T09:04:12;11.55;;;8.85;;
19651;SDS011;9974;52.146;14.668;2023-06-19T09:09:22;12.80;;;9.68;;
19651;SDS011;9974;52.146;14.668;2023-06-19T09:12:08;11.25;;;8.90;;
19651;SDS011;9974;52.146;14.668;2023-06-19T09:14:44;10.80;;;9.20;;
19651;SDS011;9974;52.146;14.668;2023-06-19T09:17:11;12.35;;;9.77;;
19651;SDS011;9974;52.146;14.668;2023-06-19T09:19:48;10.50;;;8.98;;
19651;SDS011;9974;52.146;14.668;2023-06-19T09:22:16;14.48;;;11.05;;
19651;SDS011;9974;52.146;14.668;2023-06-19T09:24:46;13.90;;;9.45;;
19651;SDS011;9974;52.146;14.668;2023-06-19T09:27:18;12.88;;;9.32;;
19651;SDS011;9974;52.146;14.668;2023-06-19T09:29:45;12.80;;;8.40;;
19651;SDS011;9974;52.146;14.668;2023-06-19T09:34:47;13.65;;;8.15;;
19651;SDS011;9974;52.146;14.668;2023-06-19T09:37:18;10.10;;;7.85;;
19651;SDS011;9974;52.146;14.668;2023-06-19T09:39:52;9.00;;;7.07;;
19651;SDS011;9974;52.146;14.668;2023-06-19T09:42:27;10.65;;;7.78;;
19651;SDS011;9974;52.146;14.668;2023-06-19T09:45:00;11.43;;;7.90;;
19651;SDS011;9974;52.146;14.668;2023-06-19T09:47:35;9.32;;;7.10;;
19651;SDS011;9974;52.146;14.668;2023-06-19T09:50:08;8.95;;;7.05;;
19651;SDS011;9974;52.146;14.668;2023-06-19T09:52:39;11.00;;;8.18;;
19651;SDS011;9974;52.146;14.668;2023-06-19T09:55:07;7.90;;;6.75;;
19651;SDS011;9974;52.146;14.668;2023-06-19T09:57:35;9.27;;;7.70;;
19651;SDS011;9974;52.146;14.668;2023-06-19T10:00:03;9.90;;;7.20;;
19651;SDS011;9974;52.146;14.668;2023-06-19T10:02:34;14.52;;;8.10;;
19651;SDS011;9974;52.146;14.668;2023-06-19T10:05:00;9.48;;;6.85;;
19651;SDS011;9974;52.146;14.668;2023-06-19T10:07:32;10.10;;;6.88;;
19651;SDS011;9974;52.146;14.668;2023-06-19T10:12:52;9.75;;;7.22;;
19651;SDS011;9974;52.146;14.668;2023-06-19T10:15:23;8.13;;;6.63;;
19651;SDS011;9974;52.146;14.668;2023-06-19T10:18:04;8.93;;;7.00;;
19651;SDS011;9974;52.146;14.668;2023-06-19T10:20:31;8.65;;;6.65;;
19651;SDS011;9974;52.146;14.668;2023-06-19T10:25:32;8.57;;;6.50;;
19651;SDS011;9974;52.146;14.668;2023-06-19T10:30:53;9.10;;;6.43;;
19651;SDS011;9974;52.146;14.668;2023-06-19T10:33:24;8.38;;;6.75;;
19651;SDS011;9974;52.146;14.668;2023-06-19T10:35:55;9.52;;;6.57;;
19651;SDS011;9974;52.146;14.668;2023-06-19T10:38:21;8.88;;;6.43;;
19651;SDS011;9974;52.146;14.668;2023-06-19T10:40:47;7.43;;;5.95;;
19651;SDS011;9974;52.146;14.668;2023-06-19T10:43:19;8.18;;;5.93;;
19651;SDS011;9974;52.146;14.668;2023-06-19T10:45:46;7.50;;;5.88;;
19651;SDS011;9974;52.146;14.668;2023-06-19T10:48:17;9.85;;;6.90;;
19651;SDS011;9974;52.146;14.668;2023-06-19T10:50:48;6.55;;;5.80;;
19651;SDS011;9974;52.146;14.668;2023-06-19T10:53:28;9.52;;;5.88;;
19651;SDS011;9974;52.146;14.668;2023-06-19T10:55:56;7.80;;;5.43;;
19651;SDS011;9974;52.146;14.668;2023-06-19T10:58:24;10.82;;;7.00;;
19651;SDS011;9974;52.146;14.668;2023-06-19T11:00:50;9.00;;;6.57;;
19651;SDS011;9974;52.146;14.668;2023-06-19T11:03:16;7.57;;;6.15;;
19651;SDS011;9974;52.146;14.668;2023-06-19T11:05:45;9.55;;;6.43;;
19651;SDS011;9974;52.146;14.668;2023-06-19T11:08:16;7.40;;;5.45;;
19651;SDS011;9974;52.146;14.668;2023-06-19T11:10:46;8.68;;;5.32;;
19651;SDS011;9974;52.146;14.668;2023-06-19T11:13:19;7.78;;;5.35;;
19651;SDS011;9974;52.146;14.668;2023-06-19T11:15:46;7.63;;;5.75;;
19651;SDS011;9974;52.146;14.668;2023-06-19T11:18:14;9.15;;;5.78;;
19651;SDS011;9974;52.146;14.668;2023-06-19T11:20:46;6.82;;;5.68;;
19651;SDS011;9974;52.146;14.668;2023-06-19T11:23:17;7.75;;;5.40;;
19651;SDS011;9974;52.146;14.668;2023-06-19T11:25:53;8.57;;;4.97;;
19651;SDS011;9974;52.146;14.668;2023-06-19T11:28:27;6.78;;;4.65;;
19651;SDS011;9974;52.146;14.668;2023-06-19T11:30:58;5.53;;;4.20;;
19651;SDS011;9974;52.146;14.668;2023-06-19T11:33:26;7.65;;;5.07;;
19651;SDS011;9974;52.146;14.668;2023-06-19T11:35:53;9.02;;;4.97;;
19651;SDS011;9974;52.146;14.668;2023-06-19T11:38:23;5.80;;;4.70;;
19651;SDS011;9974;52.146;14.668;2023-06-19T11:40:51;6.82;;;4.60;;
19651;SDS011;9974;52.146;14.668;2023-06-19T11:43:27;5.88;;;4.22;;
19651;SDS011;9974;52.146;14.668;2023-06-19T11:46:01;6.40;;;4.22;;
19651;SDS011;9974;52.146;14.668;2023-06-19T11:48:28;5.93;;;4.05;;
19651;SDS011;9974;52.146;14.668;2023-06-19T11:50:54;6.38;;;4.28;;
19651;SDS011;9974;52.146;14.668;2023-06-19T11:53:21;6.85;;;4.68;;
19651;SDS011;9974;52.146;14.668;2023-06-19T11:55:49;6.78;;;4.57;;
19651;SDS011;9974;52.146;14.668;2023-06-19T11:58:18;6.57;;;4.90;;
19651;SDS011;9974;52.146;14.668;2023-06-19T12:00:45;7.15;;;4.75;;
19651;SDS011;9974;52.146;14.668;2023-06-19T12:03:11;6.03;;;4.82;;
19651;SDS011;9974;52.146;14.668;2023-06-19T12:05:37;6.15;;;4.07;;
19651;SDS011;9974;52.146;14.668;2023-06-19T12:08:03;5.95;;;4.60;;
19651;SDS011;9974;52.146;14.668;2023-06-19T12:10:30;7.13;;;4.47;;
19651;SDS011;9974;52.146;14.668;2023-06-19T12:12:56;7.78;;;4.50;;
19651;SDS011;9974;52.146;14.668;2023-06-19T12:15:22;7.18;;;4.82;;
19651;SDS011;9974;52.146;14.668;2023-06-19T12:17:50;6.45;;;4.75;;
19651;SDS011;9974;52.146;14.668;2023-06-19T12:20:16;9.77;;;4.80;;
19651;SDS011;9974;52.146;14.668;2023-06-19T12:22:42;6.55;;;5.03;;
19651;SDS011;9974;52.146;14.668;2023-06-19T12:25:08;6.80;;;4.72;;
19651;SDS011;9974;52.146;14.668;2023-06-19T12:27:35;6.40;;;4.53;;
19651;SDS011;9974;52.146;14.668;2023-06-19T12:30:03;8.55;;;4.60;;
19651;SDS011;9974;52.146;14.668;2023-06-19T12:32:29;6.25;;;4.63;;
19651;SDS011;9974;52.146;14.668;2023-06-19T12:34:55;6.10;;;4.10;;
19651;SDS011;9974;52.146;14.668;2023-06-19T12:37:21;6.10;;;4.82;;
19651;SDS011;9974;52.146;14.668;2023-06-19T12:39:47;7.35;;;5.32;;
19651;SDS011;9974;52.146;14.668;2023-06-19T12:42:16;6.40;;;5.00;;
19651;SDS011;9974;52.146;14.668;2023-06-19T12:44:42;6.22;;;4.85;;
19651;SDS011;9974;52.146;14.668;2023-06-19T12:47:11;6.65;;;4.57;;
19651;SDS011;9974;52.146;14.668;2023-06-19T12:49:40;5.80;;;4.70;;
19651;SDS011;9974;52.146;14.668;2023-06-19T12:52:05;12.63;;;4.47;;
19651;SDS011;9974;52.146;14.668;2023-06-19T12:54:32;8.70;;;4.40;;
19651;SDS011;9974;52.146;14.668;2023-06-19T12:56:57;6.00;;;4.53;;
19651;SDS011;9974;52.146;14.668;2023-06-19T12:59:23;6.63;;;4.65;;
19651;SDS011;9974;52.146;14.668;2023-06-19T13:01:49;7.80;;;4.93;;
19651;SDS011;9974;52.146;14.668;2023-06-19T13:04:15;9.70;;;5.13;;
19651;SDS011;9974;52.146;14.668;2023-06-19T13:06:42;7.13;;;4.65;;
19651;SDS011;9974;52.146;14.668;2023-06-19T13:09:08;6.18;;;4.68;;
19651;SDS011;9974;52.146;14.668;2023-06-19T13:11:34;9.73;;;5.07;;
19651;SDS011;9974;52.146;14.668;2023-06-19T13:14:00;6.20;;;4.35;;
19651;SDS011;9974;52.146;14.668;2023-06-19T13:16:26;7.32;;;5.18;;
19651;SDS011;9974;52.146;14.668;2023-06-19T13:18:52;6.40;;;4.85;;
19651;SDS011;9974;52.146;14.668;2023-06-19T13:21:18;6.50;;;4.38;;
19651;SDS011;9974;52.146;14.668;2023-06-19T13:23:44;7.00;;;4.85;;
19651;SDS011;9974;52.146;14.668;2023-06-19T13:26:10;7.85;;;4.85;;
19651;SDS011;9974;52.146;14.668;2023-06-19T13:28:37;7.95;;;5.05;;
19651;SDS011;9974;52.146;14.668;2023-06-19T13:31:03;8.45;;;5.55;;
19651;SDS011;9974;52.146;14.668;2023-06-19T13:33:29;5.90;;;4.05;;
19651;SDS011;9974;52.146;14.668;2023-06-19T13:35:55;7.32;;;4.50;;
19651;SDS011;9974;52.146;14.668;2023-06-19T13:38:21;7.47;;;5.30;;
19651;SDS011;9974;52.146;14.668;2023-06-19T13:40:47;6.88;;;4.78;;
19651;SDS011;9974;52.146;14.668;2023-06-19T13:43:14;8.57;;;5.15;;
19651;SDS011;9974;52.146;14.668;2023-06-19T13:45:39;9.00;;;5.15;;
19651;SDS011;9974;52.146;14.668;2023-06-19T13:48:06;6.45;;;4.45;;
19651;SDS011;9974;52.146;14.668;2023-06-19T13:50:32;6.22;;;4.68;;
19651;SDS011;9974;52.146;14.668;2023-06-19T13:52:58;7.10;;;4.13;;
19651;SDS011;9974;52.146;14.668;2023-06-19T13:55:25;5.85;;;4.45;;
19651;SDS011;9974;52.146;14.668;2023-06-19T13:57:51;7.88;;;4.97;;
19651;SDS011;9974;52.146;14.668;2023-06-19T14:00:17;4.85;;;3.97;;
19651;SDS011;9974;52.146;14.668;2023-06-19T14:02:44;6.28;;;4.38;;
19651;SDS011;9974;52.146;14.668;2023-06-19T14:05:10;10.38;;;4.47;;
19651;SDS011;9974;52.146;14.668;2023-06-19T14:07:36;7.70;;;5.03;;
19651;SDS011;9974;52.146;14.668;2023-06-19T14:10:03;6.82;;;4.60;;
19651;SDS011;9974;52.146;14.668;2023-06-19T14:12:29;8.45;;;4.78;;
19651;SDS011;9974;52.146;14.668;2023-06-19T14:14:55;5.95;;;4.25;;
19651;SDS011;9974;52.146;14.668;2023-06-19T14:17:22;7.00;;;4.75;;
19651;SDS011;9974;52.146;14.668;2023-06-19T14:19:48;6.03;;;4.53;;
19651;SDS011;9974;52.146;14.668;2023-06-19T14:22:15;5.78;;;4.28;;
19651;SDS011;9974;52.146;14.668;2023-06-19T14:24:42;5.65;;;4.70;;
19651;SDS011;9974;52.146;14.668;2023-06-19T14:27:08;6.88;;;4.63;;
19651;SDS011;9974;52.146;14.668;2023-06-19T14:29:34;7.18;;;5.30;;
19651;SDS011;9974;52.146;14.668;2023-06-19T14:32:00;9.73;;;5.35;;
19651;SDS011;9974;52.146;14.668;2023-06-19T14:34:27;6.47;;;5.22;;
19651;SDS011;9974;52.146;14.668;2023-06-19T14:36:53;6.70;;;4.53;;
19651;SDS011;9974;52.146;14.668;2023-06-19T14:39:19;7.18;;;4.70;;
19651;SDS011;9974;52.146;14.668;2023-06-19T14:41:45;8.75;;;5.65;;
19651;SDS011;9974;52.146;14.668;2023-06-19T14:44:10;6.05;;;4.82;;
19651;SDS011;9974;52.146;14.668;2023-06-19T14:46:37;6.65;;;4.60;;
19651;SDS011;9974;52.146;14.668;2023-06-19T14:49:09;6.95;;;5.43;;